• Join FlightAware (Why Join?)
  • Login
  • US Flag 
11:00AM EDT


 

Airport Tracker/Info


-or-


 

Live Flight TrackerFlight Track Log ✈ ELJ442 ✈ 09-Dec-2013 ✈ KMDW - KLUK

Flight Track Log - Related Links

Times and Time Zones

All times are in EST time to prevent confusion due to time zone crossing. See the ELJ442 flight status page for this flight to view local times or setup timezone preferences in your user account.

Time Position Orientation Groundspeed Altitude Reporting Facility
EST Latitude Longitude Course Direction KTS MPH feet Rate Location/Type
09:31PM 41.8308 -87.7675 27° Northeast 259 298 4,000  Level Chicago Center
09:32PM 41.8169 -87.6672 100° East 270 311 4,700 1,920 Climbing Chicago Center
09:33PM 41.8117 -87.5561 94° East 293 337 8,000 3,540 Climbing Chicago Center
09:34PM 41.7997 -87.4331 97° East 328 377 12,000 3,840 Climbing Chicago Center
09:35PM 41.7853 -87.2942 98° East 372 428 16,000 3,660 Climbing Chicago Center
09:36PM 41.7636 -87.0922 98° East 455 524 19,600 2,400 Climbing Chicago Center
09:37PM 41.7617 -86.8972 91° East 526 605 21,000 660 Climbing Chicago Center
09:38PM 41.7661 -86.6947 88° East 542 624 21,000  Level Chicago Center
09:39PM 41.7669 -86.5083 90° East 535 616 21,000  Level Chicago Center
09:40PM 41.7425 -86.3200 100° East 522 601 21,000  Level Chicago Center
09:41PM 41.6631 -86.1847 128° Southeast 469 540 21,000  Level Chicago Center
09:42PM 41.5664 -86.0325 130° Southeast 451 519 21,000  Level Chicago Center
09:43PM 41.4864 -85.9039 130° Southeast 454 522 21,000  Level Chicago Center
09:44PM 41.4058 -85.7753 130° Southeast 458 527 21,000  Level Chicago Center
09:45PM 41.3256 -85.6469 130° Southeast 457 526 21,000  Level Chicago Center
09:46PM 41.2447 -85.5169 130° Southeast 461 531 21,000  Level Chicago Center
09:47PM 41.1467 -85.3675 131° Southeast 453 521 21,000  Level Chicago Center
09:48PM 41.0644 -85.2344 129° Southeast 465 535 21,000  Level Chicago Center
09:49PM 40.9822 -85.1053 130° Southeast 465 535 21,000  Level Chicago Center
09:51PM 40.8994 -84.9781 131° Southeast 460 529 21,000  Level Chicago Center
09:52PM 40.8169 -84.8508 131° Southeast 459 528 21,000  Level Chicago Center
09:53PM 40.7350 -84.7219 130° Southeast 459 528 21,000  Level Chicago Center
09:54PM 40.6497 -84.5983 132° Southeast 459 528 21,000  Level Chicago Center
09:54PM 40.5978 -84.5742 161° South 422 486 21,000  Level Indianapolis Center
09:55PM 40.4769 -84.5533 173° South 351 404 21,000  Level Indianapolis Center
09:55PM 40.4778 -84.5544 315° West 367 422 21,000  Level Indianapolis Center
09:56PM 40.4081 -84.5461 175° South 356 410 21,000  Level Indianapolis Center
09:56PM 40.3767 -84.5444 178° South 362 417 21,000 -300 Level Indianapolis Center
09:57PM 40.3058 -84.5381 176° South 365 420 20,700 -720 Descending Indianapolis Center
09:57PM 40.2778 -84.5344 174° South 361 415 20,300 -1,440 Descending Indianapolis Center
09:58PM 40.2081 -84.5283 176° South 356 410 19,300 -1,500 Descending Indianapolis Center
09:58PM 40.1781 -84.5247 175° South 360 414 18,800 -1,620 Descending Indianapolis Center
09:59PM 40.0997 -84.5167 176° South 366 421 17,700 -1,320 Descending Indianapolis Center
09:59PM 40.0775 -84.5144 176° South 364 419 17,500 -1,260 Descending Indianapolis Center
10:00PM 40.0164 -84.5094 176° South 357 411 16,600 -1,500 Descending Indianapolis Center
10:00PM 39.9800 -84.5044 174° South 358 412 16,000 -1,620 Descending Indianapolis Center
10:01PM 39.9144 -84.4989 176° South 344 396 15,000 -1,380 Descending Indianapolis Center
10:01PM 39.8839 -84.4956 175° South 353 406 14,600 -1,380 Descending Indianapolis Center
10:02PM 39.8225 -84.4906 176° South 332 382 13,600 -1,500 Descending Indianapolis Center
10:02PM 39.7908 -84.4864 174° South 343 395 13,100 -1,500 Descending Indianapolis Center
10:03PM 39.7228 -84.4803 176° South 358 412 12,100 -1,800 Descending Indianapolis Center
10:03PM 39.6756 -84.4750 175° South 346 398 11,300 -1,620 Descending Indianapolis Center
10:04PM 39.5972 -84.4664 175° South 309 356 9,700 -1,920 Descending Indianapolis Center
10:05PM 39.5292 -84.4517 171° South 265 305 7,400 -2,340 Descending Indianapolis Center
10:06PM 39.4561 -84.4167 160° South 277 319 5,000 -2,100 Descending Indianapolis Center
10:07PM 39.3869 -84.3836 160° South 273 314 3,100 -1,020 Descending Indianapolis Center
10:08PM 39.3306 -84.3461 153° Southeast 253 291 3,000 -60 Descending Indianapolis Center
10:09PM 39.2806 -84.3339 169° South 219 252 3,000  Level Indianapolis Center
10:10PM 39.2311 -84.3528 196° South 200 230 3,000 -120 Level Indianapolis Center
10:11PM 39.1794 -84.3781 201° Southwest 191 220 2,800 -240 Descending Indianapolis Center
10:14PM 39.1000 -84.4167 180° South  Level FlightAware Approximate
10:21PM 39.1033 -84.4186 180° South  Level Estimated
10:22PM 39.1000 -84.4167 180° South  Level FlightAware Approximate